Time;durP1;ratioP1;P1;durP2;ratioP2;P2;SDS_P1;SDS_P2;PMS_P1;PMS_P2;Temp;Humidity;BMP_temperature;BMP_pressure;BME280_temperature;BME280_humidity;BME280_pressure;Samples;Min_cycle;Max_cycle;Signal;HPM_P1;HPM_P2
2022/10/04 00:01:53;;;;;;;15.00;5.85;;;11.30;99.90;;;;;;4956711;28;20685;-60
2022/10/04 00:04:23;;;;;;;7.20;4.85;;;11.40;99.90;;;;;;4952870;28;20576;-60
2022/10/04 00:07:00;;;;;;;11.63;5.68;;;11.30;99.90;;;;;;4957605;28;20067;-60
2022/10/04 00:09:33;;;;;;;15.52;5.55;;;11.30;99.90;;;;;;4957701;28;20603;-60
2022/10/04 00:12:00;;;;;;;9.77;5.60;;;11.40;99.90;;;;;;4960123;28;20106;-60
2022/10/04 00:14:36;;;;;;;12.45;5.75;;;11.30;99.90;;;;;;4951494;28;20704;-60
2022/10/04 00:17:11;;;;;;;10.27;5.82;;;11.30;99.90;;;;;;4955750;28;20054;-60
2022/10/04 00:19:47;;;;;;;10.32;5.95;;;11.40;99.90;;;;;;4951039;28;20050;-60
2022/10/04 00:22:32;;;;;;;13.70;6.30;;;11.40;99.90;;;;;;4961210;28;20031;-60
2022/10/04 00:25:06;;;;;;;12.27;6.72;;;11.30;99.90;;;;;;4954319;28;20039;-60
2022/10/04 00:27:37;;;;;;;10.68;6.05;;;11.30;99.90;;;;;;4957980;28;20046;-60
2022/10/04 00:30:02;;;;;;;9.27;6.03;;;11.30;99.90;;;;;;4956203;28;20721;-60
2022/10/04 00:33:05;;;;;;;14.38;6.50;;;11.20;99.90;;;;;;4954935;28;20134;-59
2022/10/04 00:35:31;;;;;;;13.20;6.60;;;11.20;99.90;;;;;;4956397;28;21286;-60
2022/10/04 00:38:05;;;;;;;11.07;6.40;;;11.10;99.90;;;;;;4957423;28;20035;-60
2022/10/04 00:41:00;;;;;;;12.90;6.95;;;11.10;99.90;;;;;;4957072;28;20842;-60
2022/10/04 00:43:53;;;;;;;12.50;7.07;;;11.20;99.90;;;;;;4959065;28;20113;-60
2022/10/04 00:46:22;;;;;;;11.50;6.38;;;11.10;99.90;;;;;;4953611;28;20374;-60
2022/10/04 00:48:59;;;;;;;12.30;6.80;;;11.20;99.90;;;;;;4956567;28;20043;-60
2022/10/04 00:51:33;;;;;;;15.88;6.95;;;11.20;99.90;;;;;;4954896;28;20360;-60
2022/10/04 00:54:11;;;;;;;12.68;6.82;;;11.10;99.90;;;;;;4955630;28;20129;-60
2022/10/04 00:56:53;;;;;;;13.48;6.63;;;11.10;99.90;;;;;;4952300;28;20089;-60
2022/10/04 00:59:43;;;;;;;14.75;6.78;;;11.10;99.90;;;;;;4957572;28;20224;-60
2022/10/04 01:02:25;;;;;;;11.05;6.47;;;11.10;99.90;;;;;;4956503;28;20782;-60
2022/10/04 01:05:05;;;;;;;10.73;6.22;;;11.10;99.90;;;;;;4945690;28;20111;-60
2022/10/04 01:07:37;;;;;;;14.02;6.68;;;11.10;99.90;;;;;;4958981;28;21309;-60
2022/10/04 01:10:35;;;;;;;11.93;6.88;;;11.10;99.90;;;;;;4954179;28;20051;-60
2022/10/04 01:13:15;;;;;;;11.18;6.70;;;11.20;99.90;;;;;;4950869;28;20032;-60
2022/10/04 01:15:41;;;;;;;11.25;6.47;;;11.10;99.90;;;;;;4951341;28;20112;-61
2022/10/04 01:18:18;;;;;;;10.13;6.20;;;11.10;99.90;;;;;;4956799;28;20542;-60
2022/10/04 01:21:17;;;;;;;14.68;6.65;;;11.00;99.90;;;;;;4956017;28;20097;-60
2022/10/04 01:23:57;;;;;;;13.57;6.57;;;11.00;99.90;;;;;;4954769;28;20098;-60
2022/10/04 01:26:25;;;;;;;11.68;6.80;;;11.00;99.90;;;;;;4952682;28;20539;-60
2022/10/04 01:28:52;;;;;;;13.07;6.63;;;11.10;99.90;;;;;;4956655;28;20531;-60
2022/10/04 01:31:18;;;;;;;11.40;6.43;;;11.20;99.90;;;;;;4952075;28;20410;-60
2022/10/04 01:33:44;;;;;;;11.43;6.95;;;11.10;99.90;;;;;;4955689;28;20057;-60
2022/10/04 01:36:09;;;;;;;9.82;6.40;;;11.10;99.90;;;;;;4954448;28;20031;-60
2022/10/04 01:38:35;;;;;;;11.25;6.78;;;11.10;99.90;;;;;;4958758;28;20054;-60
2022/10/04 01:41:04;;;;;;;11.85;6.82;;;11.00;99.90;;;;;;4955391;28;20049;-59
2022/10/04 01:43:36;;;;;;;13.55;6.80;;;11.00;99.90;;;;;;4955071;28;20050;-60
2022/10/04 01:46:09;;;;;;;12.10;7.07;;;11.10;99.90;;;;;;4955332;28;20038;-61
2022/10/04 01:48:37;;;;;;;12.15;7.22;;;10.90;99.90;;;;;;4957054;28;20661;-60
2022/10/04 01:51:15;;;;;;;12.25;7.20;;;10.90;99.90;;;;;;4952717;28;20109;-60
2022/10/04 01:53:49;;;;;;;13.52;7.07;;;10.90;99.90;;;;;;4956357;28;20043;-60
2022/10/04 01:56:29;;;;;;;16.00;7.05;;;10.80;99.90;;;;;;4953007;28;20122;-61
2022/10/04 01:59:00;;;;;;;11.60;7.35;;;10.80;99.90;;;;;;4959150;28;20856;-60
2022/10/04 02:01:31;;;;;;;11.95;6.88;;;10.90;99.90;;;;;;4957419;28;20078;-60
2022/10/04 02:04:01;;;;;;;13.30;6.97;;;10.80;99.90;;;;;;4955498;28;20039;-61
2022/10/04 02:06:27;;;;;;;15.65;7.20;;;10.80;99.90;;;;;;4954450;28;20791;-60
2022/10/04 02:08:56;;;;;;;12.48;7.40;;;10.70;99.90;;;;;;4951168;28;20062;-60
2022/10/04 02:11:23;;;;;;;13.90;7.38;;;10.70;99.90;;;;;;4955780;28;20050;-60
2022/10/04 02:13:51;;;;;;;16.50;7.20;;;10.70;99.90;;;;;;4951437;28;20141;-60
2022/10/04 02:16:19;;;;;;;14.75;7.55;;;10.80;99.90;;;;;;4952143;28;20031;-60
2022/10/04 02:18:45;;;;;;;15.48;7.55;;;10.80;99.90;;;;;;4957069;28;20047;-60
2022/10/04 02:21:13;;;;;;;14.27;7.78;;;10.80;99.90;;;;;;4958846;28;20053;-60
2022/10/04 02:23:40;;;;;;;12.15;7.65;;;10.80;99.90;;;;;;4952442;28;20038;-60
2022/10/04 02:26:08;;;;;;;15.80;7.60;;;10.80;99.90;;;;;;4956150;28;20296;-60
2022/10/04 02:28:34;;;;;;;14.00;7.93;;;10.80;99.90;;;;;;4958030;28;20557;-60
2022/10/04 02:33:49;;;;;;;11.55;7.70;;;10.80;99.90;;;;;;4954267;28;20090;-60
2022/10/04 02:36:16;;;;;;;12.00;8.10;;;10.90;99.90;;;;;;4959017;28;20558;-60
2022/10/04 02:38:52;;;;;;;15.07;8.85;;;10.90;99.90;;;;;;4959635;28;20055;-60
2022/10/04 02:41:31;;;;;;;14.88;8.70;;;10.90;99.90;;;;;;4957917;28;20031;-61
2022/10/04 02:44:03;;;;;;;14.32;8.52;;;10.80;99.90;;;;;;4959492;28;20042;-60
2022/10/04 02:46:35;;;;;;;16.42;8.93;;;10.80;99.90;;;;;;4960917;28;20035;-60
2022/10/04 02:49:09;;;;;;;17.58;9.60;;;10.90;99.90;;;;;;4962091;28;20328;-60
2022/10/04 02:51:41;;;;;;;24.00;9.90;;;11.00;99.90;;;;;;4957107;28;20403;-60
2022/10/04 02:54:32;;;;;;;15.45;8.82;;;11.00;99.90;;;;;;4960851;28;20034;-60
2022/10/04 02:56:59;;;;;;;17.73;9.18;;;10.90;99.90;;;;;;4955501;28;20031;-60
2022/10/04 02:59:26;;;;;;;17.45;8.30;;;10.90;99.90;;;;;;4955947;28;20035;-60
2022/10/04 03:01:57;;;;;;;15.65;8.65;;;10.90;99.90;;;;;;4955933;28;20047;-60
2022/10/04 03:04:32;;;;;;;13.13;8.15;;;10.90;99.90;;;;;;4961680;28;20038;-61
2022/10/04 03:07:03;;;;;;;13.68;8.25;;;10.90;99.90;;;;;;4962507;28;20043;-60
2022/10/04 03:09:28;;;;;;;15.75;9.27;;;10.90;99.90;;;;;;4957251;28;20039;-60
2022/10/04 03:11:55;;;;;;;13.43;8.40;;;10.80;99.90;;;;;;4957345;28;20077;-60
2022/10/04 03:14:23;;;;;;;15.10;8.02;;;10.70;99.90;;;;;;4956891;28;20038;-60
2022/10/04 03:16:55;;;;;;;15.00;8.65;;;10.80;99.90;;;;;;4959433;28;20043;-60
2022/10/04 03:19:23;;;;;;;13.05;7.43;;;10.80;99.90;;;;;;4960479;28;20022;-60
2022/10/04 03:21:53;;;;;;;19.33;8.48;;;10.70;99.90;;;;;;4957194;28;20499;-60
2022/10/04 03:24:31;;;;;;;11.45;7.93;;;10.70;99.90;;;;;;4949443;28;20130;-60
2022/10/04 03:27:01;;;;;;;12.70;8.15;;;10.80;99.90;;;;;;4951666;28;20137;-61
2022/10/04 03:29:30;;;;;;;13.82;8.10;;;10.80;99.90;;;;;;4954898;28;20472;-60
2022/10/04 03:31:57;;;;;;;15.20;9.40;;;10.70;99.90;;;;;;4957871;28;20911;-61
2022/10/04 03:34:38;;;;;;;18.10;9.45;;;10.70;99.90;;;;;;4956464;28;20467;-60
2022/10/04 03:37:12;;;;;;;17.20;9.40;;;10.80;99.90;;;;;;4958057;28;20119;-60
2022/10/04 03:39:42;;;;;;;19.02;9.45;;;10.80;99.90;;;;;;4955985;28;20177;-60
2022/10/04 03:42:20;;;;;;;16.83;9.18;;;10.70;99.90;;;;;;4941538;28;20118;-61
2022/10/04 03:44:49;;;;;;;13.95;9.20;;;10.70;99.90;;;;;;4956510;28;20038;-60
2022/10/04 03:47:35;;;;;;;13.27;8.57;;;10.60;99.90;;;;;;4957733;28;20491;-60
2022/10/04 03:50:13;;;;;;;14.45;8.90;;;10.70;99.90;;;;;;4957816;28;20043;-60
2022/10/04 03:52:52;;;;;;;17.95;8.77;;;10.70;99.90;;;;;;4953250;28;20070;-60
2022/10/04 03:55:19;;;;;;;15.73;8.95;;;10.70;99.90;;;;;;4957726;28;20130;-63
2022/10/04 03:57:46;;;;;;;11.95;7.93;;;10.80;99.90;;;;;;4958272;28;20037;-61
2022/10/04 04:00:16;;;;;;;15.13;8.95;;;10.80;99.90;;;;;;4958214;28;20446;-60
2022/10/04 04:02:49;;;;;;;12.93;8.68;;;10.80;99.90;;;;;;4956747;28;20049;-61
2022/10/04 04:05:31;;;;;;;15.50;8.57;;;10.80;99.90;;;;;;4957876;28;20039;-61
2022/10/04 04:08:05;;;;;;;13.77;8.55;;;10.80;99.90;;;;;;4956817;28;20825;-60
2022/10/04 04:10:36;;;;;;;19.40;9.23;;;10.80;99.90;;;;;;4954690;28;20039;-61
2022/10/04 04:13:09;;;;;;;13.40;8.15;;;10.80;99.90;;;;;;4955693;28;20134;-61
2022/10/04 04:15:36;;;;;;;13.52;8.07;;;10.90;99.90;;;;;;4956336;28;20051;-61
2022/10/04 04:18:05;;;;;;;12.68;8.18;;;10.80;99.90;;;;;;4951852;28;20051;-61
2022/10/04 04:20:36;;;;;;;14.52;8.48;;;10.80;99.90;;;;;;4956057;28;20114;-61
2022/10/04 04:23:22;;;;;;;15.75;8.00;;;10.70;99.90;;;;;;4956532;28;20043;-61
2022/10/04 04:25:53;;;;;;;15.25;8.30;;;10.60;99.90;;;;;;4950166;28;20068;-61
2022/10/04 04:28:40;;;;;;;17.15;8.10;;;10.60;99.90;;;;;;4950164;28;23674;-60
2022/10/04 04:31:19;;;;;;;11.88;7.85;;;10.60;99.90;;;;;;4948456;28;20450;-60
2022/10/04 04:33:50;;;;;;;12.27;8.15;;;10.60;99.90;;;;;;4953412;28;20043;-60
2022/10/04 04:36:16;;;;;;;13.88;7.72;;;10.60;99.90;;;;;;4957730;28;20039;-61
2022/10/04 04:41:30;;;;;;;12.82;7.35;;;10.70;99.90;;;;;;4955271;28;20054;-61
2022/10/04 04:43:57;;;;;;;15.15;7.93;;;10.60;99.90;;;;;;4953457;28;20210;-60
2022/10/04 04:46:23;;;;;;;15.73;7.72;;;10.60;99.90;;;;;;4951407;28;20035;-60
2022/10/04 04:48:59;;;;;;;15.32;7.53;;;10.50;99.90;;;;;;4952148;28;20030;-60
2022/10/04 04:51:25;;;;;;;14.18;7.80;;;10.50;99.90;;;;;;4952529;28;20047;-60
2022/10/04 04:53:54;;;;;;;11.95;7.32;;;10.50;99.90;;;;;;4955520;28;20137;-61
2022/10/04 04:56:24;;;;;;;15.93;7.75;;;10.50;99.90;;;;;;4957075;28;20691;-60
2022/10/04 04:58:53;;;;;;;11.65;7.30;;;10.40;99.90;;;;;;4952057;28;20057;-61
2022/10/04 05:01:43;;;;;;;11.40;7.68;;;10.50;99.90;;;;;;4957463;28;20510;-61
2022/10/04 05:04:08;;;;;;;14.80;8.27;;;10.40;99.90;;;;;;4954416;28;20651;-60
2022/10/04 05:06:36;;;;;;;15.18;7.88;;;10.40;99.90;;;;;;4954285;28;20073;-61
2022/10/04 05:09:04;;;;;;;14.20;7.30;;;10.30;99.90;;;;;;4955852;28;20035;-61
2022/10/04 05:11:36;;;;;;;20.05;7.63;;;10.30;99.90;;;;;;4952369;28;20684;-61
2022/10/04 05:14:07;;;;;;;14.07;7.00;;;10.30;99.90;;;;;;4955252;28;20056;-60
2022/10/04 05:16:40;;;;;;;16.33;7.20;;;10.30;99.90;;;;;;4957242;28;20118;-60
2022/10/04 05:19:13;;;;;;;14.02;8.00;;;10.30;99.90;;;;;;4953931;28;20031;-61
2022/10/04 05:21:43;;;;;;;11.87;7.27;;;10.40;99.90;;;;;;4949855;28;20546;-61
2022/10/04 05:24:12;;;;;;;14.25;7.30;;;10.40;99.90;;;;;;4956276;28;20049;-60
2022/10/04 05:26:41;;;;;;;13.95;7.07;;;10.30;99.90;;;;;;4957682;28;20062;-60
2022/10/04 05:29:16;;;;;;;14.85;7.90;;;10.20;99.90;;;;;;4952574;28;20361;-61
2022/10/04 05:32:03;;;;;;;13.23;7.47;;;10.20;99.90;;;;;;4960044;28;20521;-60
2022/10/04 05:34:35;;;;;;;11.93;7.20;;;10.10;99.90;;;;;;4955318;28;20092;-61
2022/10/04 05:37:24;;;;;;;14.52;7.88;;;10.20;99.90;;;;;;4951978;28;20094;-60
2022/10/04 05:40:11;;;;;;;12.25;7.50;;;10.20;99.90;;;;;;4951576;28;20441;-60
2022/10/04 05:42:44;;;;;;;15.10;7.78;;;10.20;99.90;;;;;;4952387;28;20058;-60
2022/10/04 05:45:23;;;;;;;12.65;7.65;;;10.00;99.90;;;;;;4946644;28;20073;-60
2022/10/04 05:47:52;;;;;;;15.77;8.48;;;10.10;99.90;;;;;;4950464;28;20042;-60
2022/10/04 05:50:42;;;;;;;18.38;8.27;;;10.00;99.90;;;;;;4950482;28;20480;-60
2022/10/04 05:53:34;;;;;;;14.02;7.70;;;10.00;99.90;;;;;;4947958;28;20067;-61
2022/10/04 05:56:40;;;;;;;17.65;8.13;;;10.10;99.90;;;;;;4958665;28;20560;-60
2022/10/04 05:59:33;;;;;;;16.92;8.27;;;10.00;99.90;;;;;;4955162;28;20033;-60
2022/10/04 06:02:06;;;;;;;13.93;7.80;;;10.00;99.90;;;;;;4960490;28;20038;-60
2022/10/04 06:04:50;;;;;;;14.68;8.52;;;10.00;99.90;;;;;;4960914;28;20109;-60
2022/10/04 06:07:15;;;;;;;;;;;10.00;99.90;;;;;;4956432;28;20591;-61
2022/10/04 06:09:54;;;;;;;13.68;8.30;;;10.00;99.90;;;;;;4955775;28;20017;-60
2022/10/04 06:12:43;;;;;;;17.50;8.70;;;10.00;99.90;;;;;;4951043;28;20105;-59
2022/10/04 06:15:18;;;;;;;17.08;8.55;;;10.10;99.90;;;;;;4962549;28;20561;-59
2022/10/04 06:18:02;;;;;;;20.55;9.15;;;10.10;99.90;;;;;;4959200;28;20039;-59
2022/10/04 06:20:42;;;;;;;20.23;10.00;;;10.20;99.90;;;;;;4955056;28;20047;-59
2022/10/04 06:23:29;;;;;;;19.98;9.38;;;10.20;99.90;;;;;;4954279;28;20034;-59
2022/10/04 06:26:00;;;;;;;16.15;9.32;;;10.30;99.90;;;;;;4959360;28;20035;-60
2022/10/04 06:28:35;;;;;;;17.05;9.88;;;10.30;99.90;;;;;;4961042;28;20085;-60
2022/10/04 06:31:32;;;;;;;18.15;9.80;;;10.40;99.90;;;;;;4960119;28;20038;-59
2022/10/04 06:34:16;;;;;;;21.02;9.73;;;10.40;99.90;;;;;;4932891;28;20035;-59
2022/10/04 06:36:53;;;;;;;18.60;9.50;;;10.50;99.90;;;;;;4960494;28;20162;-59
2022/10/04 06:39:29;;;;;;;18.95;9.73;;;10.50;99.90;;;;;;4955506;28;20133;-59
2022/10/04 06:42:18;;;;;;;12.82;9.35;;;10.50;99.90;;;;;;4953413;28;20035;-59
2022/10/04 06:44:50;;;;;;;17.98;9.30;;;10.50;99.90;;;;;;4959162;28;20042;-59
2022/10/04 06:47:34;;;;;;;16.83;10.15;;;10.50;99.90;;;;;;4959269;28;20471;-59
2022/10/04 06:50:37;;;;;;;23.95;10.70;;;10.60;99.90;;;;;;4958001;28;20113;-59
2022/10/04 06:53:14;;;;;;;15.80;9.97;;;10.60;99.90;;;;;;4960406;28;20085;-59
2022/10/04 06:56:18;;;;;;;17.70;10.10;;;10.80;99.90;;;;;;4957158;28;20459;-59
2022/10/04 06:59:12;;;;;;;20.80;10.40;;;10.90;99.90;;;;;;4956223;28;20043;-59
2022/10/04 07:01:51;;;;;;;21.98;10.07;;;10.80;99.90;;;;;;4954518;28;20053;-60
2022/10/04 07:04:47;;;;;;;16.45;9.90;;;10.90;99.90;;;;;;4951923;28;20039;-59
2022/10/04 07:07:35;;;;;;;16.83;9.60;;;11.10;99.90;;;;;;4959287;28;21323;-59
2022/10/04 07:10:50;;;;;;;15.55;9.57;;;11.10;99.90;;;;;;4956725;28;20121;-59
2022/10/04 07:13:37;;;;;;;16.00;9.18;;;11.00;99.90;;;;;;4934481;28;20510;-59
2022/10/04 07:16:15;;;;;;;18.40;8.77;;;11.00;99.90;;;;;;4950724;28;20055;-60
2022/10/04 07:19:16;;;;;;;16.25;8.35;;;11.00;99.90;;;;;;4957065;28;20039;-60
2022/10/04 07:22:10;;;;;;;15.20;8.68;;;11.10;99.90;;;;;;4952076;28;20039;-59
2022/10/04 07:25:13;;;;;;;18.67;7.90;;;11.10;99.90;;;;;;4954871;28;20061;-59
2022/10/04 07:31:07;;;;;;;17.13;8.65;;;11.30;99.90;;;;;;4952399;28;21922;-59
2022/10/04 07:33:41;;;;;;;17.15;9.00;;;11.40;99.90;;;;;;4948503;28;20039;-59
2022/10/04 07:36:14;;;;;;;16.05;8.77;;;11.40;99.90;;;;;;4957457;28;21181;-59
2022/10/04 07:39:11;;;;;;;28.90;20.65;;;11.40;99.90;;;;;;4954451;28;20368;-60
2022/10/04 07:42:13;;;;;;;15.52;9.90;;;11.40;99.90;;;;;;4924897;28;20039;-60
2022/10/04 07:44:41;;;;;;;13.98;9.27;;;11.40;99.90;;;;;;4908397;28;20557;-60
2022/10/04 07:47:23;;;;;;;13.65;9.80;;;11.40;99.90;;;;;;4959775;28;20378;-60
2022/10/04 07:49:52;;;;;;;15.38;8.90;;;11.50;99.90;;;;;;4958193;28;20090;-60
2022/10/04 07:52:24;;;;;;;15.07;9.55;;;11.40;99.90;;;;;;4953484;28;20035;-60
2022/10/04 07:55:14;;;;;;;13.75;8.85;;;11.50;99.90;;;;;;4955350;28;20153;-60
2022/10/04 07:57:58;;;;;;;14.75;9.93;;;11.50;99.90;;;;;;4956017;28;20043;-60
2022/10/04 08:00:38;;;;;;;17.98;10.90;;;11.60;99.90;;;;;;4950950;28;20157;-60
2022/10/04 08:03:07;;;;;;;18.67;10.38;;;11.80;99.90;;;;;;4956811;28;20497;-60
2022/10/04 08:05:53;;;;;;;21.15;10.68;;;11.90;99.90;;;;;;4956338;28;20050;-60
2022/10/04 08:08:45;;;;;;;15.48;10.20;;;12.00;99.90;;;;;;4960628;28;20481;-60
2022/10/04 08:11:20;;;;;;;20.52;10.48;;;12.10;99.90;;;;;;4948927;28;20511;-60
2022/10/04 08:14:25;;;;;;;18.52;10.75;;;12.10;99.90;;;;;;4953756;28;20569;-59
2022/10/04 08:16:50;;;;;;;;;;;11.90;99.90;;;;;;4956336;28;20062;-60
2022/10/04 08:19:54;;;;;;;60.97;38.75;;;12.00;99.90;;;;;;4956605;28;20338;-60
2022/10/04 08:22:32;;;;;;;12.35;7.55;;;12.20;99.90;;;;;;4905820;28;20067;-60
2022/10/04 08:25:01;;;;;;;17.73;10.43;;;12.20;99.90;;;;;;4957628;28;20069;-60
2022/10/04 08:27:38;;;;;;;16.23;9.68;;;12.30;99.90;;;;;;4961946;28;20030;-60
2022/10/04 08:30:09;;;;;;;16.73;10.05;;;12.40;99.90;;;;;;4959841;28;20043;-60
2022/10/04 08:32:50;;;;;;;20.67;10.30;;;12.40;99.90;;;;;;4961808;28;20038;-60
2022/10/04 08:35:32;;;;;;;17.02;8.98;;;12.40;99.90;;;;;;4953874;28;20038;-60
2022/10/04 08:38:15;;;;;;;16.45;9.23;;;12.50;99.90;;;;;;4955070;28;20200;-60
2022/10/04 08:40:59;;;;;;;16.55;9.80;;;12.40;99.90;;;;;;4955886;28;20089;-60
2022/10/04 08:43:56;;;;;;;17.77;9.90;;;12.50;99.90;;;;;;4954528;28;20046;-60
2022/10/04 08:47:01;;;;;;;17.25;9.52;;;12.60;99.90;;;;;;4954028;28;20043;-60
2022/10/04 08:49:44;;;;;;;15.95;10.82;;;12.80;99.90;;;;;;4929401;28;20166;-60
2022/10/04 08:52:39;;;;;;;17.20;10.23;;;12.90;99.90;;;;;;4957062;28;20026;-60
2022/10/04 08:55:33;;;;;;;17.42;10.02;;;13.00;99.90;;;;;;4950267;28;20042;-60
2022/10/04 08:58:26;;;;;;;16.98;10.20;;;13.10;99.90;;;;;;4961380;28;20529;-60
2022/10/04 09:01:05;;;;;;;15.47;9.47;;;13.20;99.90;;;;;;4957233;28;20578;-60
2022/10/04 09:04:08;;;;;;;18.23;8.85;;;13.10;99.90;;;;;;4954219;28;20035;-60
2022/10/04 09:07:15;;;;;;;19.67;9.90;;;13.10;99.90;;;;;;4953812;28;20042;-60
2022/10/04 09:10:19;;;;;;;19.55;9.80;;;13.30;99.90;;;;;;4927770;28;20616;-60
2022/10/04 09:13:00;;;;;;;16.00;9.80;;;13.30;99.90;;;;;;4954261;28;20587;-62
2022/10/04 09:15:50;;;;;;;19.25;10.98;;;13.40;99.90;;;;;;4950787;28;20035;-59
2022/10/04 09:18:50;;;;;;;18.63;10.70;;;13.50;99.90;;;;;;4956298;28;20051;-60
2022/10/04 09:21:46;;;;;;;16.90;9.93;;;13.50;99.90;;;;;;4959061;28;20125;-60
2022/10/04 09:24:41;;;;;;;17.33;8.82;;;13.60;99.90;;;;;;4957946;28;20905;-60
2022/10/04 09:28:01;;;;;;;19.35;9.90;;;13.60;99.90;;;;;;4931996;28;20041;-60
2022/10/04 09:30:43;;;;;;;18.05;9.30;;;13.70;99.90;;;;;;4919665;28;20456;-60
2022/10/04 09:33:24;;;;;;;16.73;8.57;;;13.80;99.90;;;;;;4952555;28;20065;-60
2022/10/04 09:36:01;;;;;;;18.17;8.88;;;13.90;99.90;;;;;;4952683;28;20083;-59
2022/10/04 09:38:57;;;;;;;15.60;8.93;;;14.00;99.90;;;;;;4952791;28;20074;-60
2022/10/04 09:41:36;;;;;;;14.27;8.63;;;14.00;99.90;;;;;;4960397;28;20066;-59
2022/10/04 09:44:43;;;;;;;14.75;8.13;;;14.00;99.90;;;;;;4956219;28;20069;-60
2022/10/04 09:47:41;;;;;;;18.50;8.00;;;14.10;99.90;;;;;;4951497;28;20113;-60
2022/10/04 09:50:36;;;;;;;190.13;155.15;;;14.20;99.90;;;;;;4953956;28;20118;-59
2022/10/04 09:53:21;;;;;;;107.80;75.70;;;14.20;99.90;;;;;;4944493;28;20420;-61
2022/10/04 09:56:13;;;;;;;124.25;84.72;;;14.30;99.90;;;;;;4949534;28;20031;-59
2022/10/04 09:59:17;;;;;;;16.67;9.15;;;14.50;99.90;;;;;;4956125;28;20026;-59
2022/10/04 10:02:27;;;;;;;15.32;8.35;;;14.50;99.90;;;;;;4953274;28;20057;-59
2022/10/04 10:05:32;;;;;;;12.52;7.97;;;14.50;99.90;;;;;;4947693;28;20038;-59
2022/10/04 10:08:22;;;;;;;15.88;8.15;;;14.50;99.90;;;;;;4952614;28;20199;-59
2022/10/04 10:14:12;;;;;;;13.60;6.97;;;14.80;99.90;;;;;;4952729;28;20046;-59
2022/10/04 10:17:04;;;;;;;14.80;7.50;;;14.70;99.90;;;;;;4960095;28;20047;-59
2022/10/04 10:19:33;;;;;;;11.95;6.07;;;14.70;99.90;;;;;;4955830;28;20146;-59
2022/10/04 10:22:30;;;;;;;14.60;5.95;;;14.80;99.90;;;;;;4957506;28;20486;-59
2022/10/04 10:25:16;;;;;;;12.90;7.20;;;14.90;99.90;;;;;;4959390;28;20043;-59
2022/10/04 10:28:19;;;;;;;13.82;6.43;;;14.80;99.90;;;;;;4946752;28;20050;-60
2022/10/04 10:31:07;;;;;;;10.48;5.93;;;15.00;99.90;;;;;;4956140;28;20038;-60
2022/10/04 10:33:59;;;;;;;11.73;5.93;;;15.00;99.90;;;;;;4954748;28;20047;-59
2022/10/04 10:36:56;;;;;;;12.13;5.97;;;15.00;99.90;;;;;;4950922;28;20622;-60
2022/10/04 10:39:32;;;;;;;10.73;5.55;;;15.10;99.90;;;;;;4952446;28;20467;-60
2022/10/04 10:42:10;;;;;;;10.32;5.85;;;15.20;99.90;;;;;;4960051;28;20039;-59
2022/10/04 10:45:08;;;;;;;12.70;5.95;;;15.30;99.90;;;;;;4951471;28;20683;-59
2022/10/04 10:48:09;;;;;;;11.25;6.10;;;15.30;99.90;;;;;;4961455;28;20053;-60
2022/10/04 10:51:02;;;;;;;9.90;5.75;;;15.30;99.90;;;;;;4959555;28;20038;-59
2022/10/04 10:53:35;;;;;;;15.30;6.57;;;15.40;99.90;;;;;;4957291;28;20077;-59
2022/10/04 10:56:44;;;;;;;12.30;6.32;;;15.30;99.90;;;;;;4968688;28;20061;-60
2022/10/04 10:59:29;;;;;;;10.48;5.22;;;15.40;99.90;;;;;;4954622;28;20065;-60
2022/10/04 11:02:04;;;;;;;10.77;5.15;;;15.50;99.90;;;;;;4953280;28;20039;-59
2022/10/04 11:04:50;;;;;;;12.45;5.38;;;15.60;99.90;;;;;;4959824;28;20578;-60
2022/10/04 11:07:42;;;;;;;14.98;5.93;;;15.60;99.90;;;;;;4954034;28;20491;-59
2022/10/04 11:10:13;;;;;;;11.75;5.20;;;15.50;99.90;;;;;;4955623;28;21088;-60
2022/10/04 11:12:42;;;;;;;11.70;5.47;;;15.60;99.90;;;;;;4954978;28;20070;-60
2022/10/04 11:15:37;;;;;;;10.57;5.60;;;15.60;99.90;;;;;;4957495;28;20137;-59
2022/10/04 11:18:14;;;;;;;11.48;5.05;;;15.70;99.90;;;;;;4954484;28;20038;-58
2022/10/04 11:20:54;;;;;;;8.25;4.78;;;15.60;99.90;;;;;;4959877;28;20452;-59
2022/10/04 11:23:56;;;;;;;9.70;4.75;;;15.70;99.90;;;;;;4954705;28;20038;-59
2022/10/04 11:26:46;;;;;;;9.50;4.35;;;15.80;99.90;;;;;;4902636;29;20048;-59
2022/10/04 11:29:22;;;;;;;11.00;4.78;;;15.90;99.90;;;;;;4956478;28;20035;-54
2022/10/04 11:32:19;;;;;;;10.70;4.38;;;15.90;99.90;;;;;;4954901;28;20065;-60
2022/10/04 11:35:05;;;;;;;10.98;4.47;;;15.90;99.90;;;;;;4952034;28;20403;-60
2022/10/04 11:37:52;;;;;;;8.27;4.22;;;16.00;99.90;;;;;;4959164;28;20042;-60
2022/10/04 11:40:23;;;;;;;10.90;4.60;;;15.90;99.90;;;;;;4960319;28;20046;-60
2022/10/04 11:42:49;;;;;;;10.10;4.57;;;16.00;99.90;;;;;;4958497;28;20038;-60
2022/10/04 11:45:18;;;;;;;9.15;4.55;;;16.10;99.90;;;;;;4955803;28;20039;-60
2022/10/04 11:48:13;;;;;;;8.93;4.55;;;16.20;99.90;;;;;;4960926;28;20070;-61
2022/10/04 11:51:09;;;;;;;9.45;4.53;;;16.20;99.90;;;;;;4960553;28;20505;-61
2022/10/04 11:54:03;;;;;;;40.53;36.00;;;16.30;99.90;;;;;;4953329;28;20053;-59
2022/10/04 11:56:43;;;;;;;13.45;7.55;;;16.30;99.90;;;;;;4956994;28;20066;-61
2022/10/04 11:59:26;;;;;;;9.40;4.22;;;16.50;99.90;;;;;;4955734;28;20510;-61
2022/10/04 12:02:15;;;;;;;6.88;3.60;;;16.40;99.90;;;;;;4946248;28;20098;-61
2022/10/04 12:05:14;;;;;;;9.52;3.88;;;16.30;99.90;;;;;;4955486;28;20130;-61
2022/10/04 12:07:53;;;;;;;14.15;4.10;;;16.40;99.90;;;;;;4955319;28;20034;-61
2022/10/04 12:10:25;;;;;;;8.23;4.22;;;16.30;99.90;;;;;;4959687;28;20034;-61
2022/10/04 12:13:03;;;;;;;13.27;4.90;;;16.40;99.90;;;;;;4954275;28;20444;-61
2022/10/04 12:15:48;;;;;;;11.38;4.25;;;16.40;99.90;;;;;;4956383;28;20031;-61
2022/10/04 12:18:42;;;;;;;7.15;3.95;;;16.40;99.90;;;;;;4951278;28;20134;-61
2022/10/04 12:21:27;;;;;;;11.57;4.82;;;16.40;99.90;;;;;;4951960;28;20375;-61
2022/10/04 12:23:58;;;;;;;9.27;4.45;;;16.40;99.90;;;;;;4950265;28;20027;-61
2022/10/04 12:27:01;;;;;;;10.20;4.25;;;16.40;99.90;;;;;;4950372;28;20036;-61
2022/10/04 12:29:43;;;;;;;10.05;4.20;;;16.50;99.90;;;;;;4955642;28;20041;-61
2022/10/04 12:32:41;;;;;;;9.23;4.47;;;16.50;99.90;;;;;;4954870;28;20027;-61
2022/10/04 12:35:24;;;;;;;11.27;5.07;;;16.40;99.90;;;;;;4942479;28;20926;-61
2022/10/04 12:38:18;;;;;;;9.60;4.70;;;16.50;99.90;;;;;;4955678;28;20093;-61
2022/10/04 12:41:05;;;;;;;10.02;4.30;;;16.70;99.90;;;;;;4949002;28;20154;-61
2022/10/04 12:43:59;;;;;;;7.22;4.20;;;16.60;99.90;;;;;;4956396;28;20042;-61
2022/10/04 12:46:47;;;;;;;25.77;16.45;;;16.60;99.90;;;;;;4950993;28;20027;-61
2022/10/04 12:49:45;;;;;;;8.38;4.40;;;16.60;99.90;;;;;;4955921;28;20578;-61
2022/10/04 12:52:20;;;;;;;7.63;4.10;;;16.60;99.90;;;;;;4957977;28;20185;-61
2022/10/04 12:55:21;;;;;;;8.80;4.28;;;16.70;99.90;;;;;;4962995;28;20031;-61
2022/10/04 12:57:55;;;;;;;11.23;4.90;;;16.70;99.90;;;;;;4938631;28;20042;-61
2022/10/04 13:00:23;;;;;;;12.90;4.72;;;16.70;99.90;;;;;;4955548;28;20105;-61
2022/10/04 13:03:07;;;;;;;10.23;4.30;;;16.70;99.90;;;;;;4955266;28;20038;-61
2022/10/04 13:05:40;;;;;;;8.65;4.75;;;16.70;99.90;;;;;;4957292;28;20488;-61
2022/10/04 13:08:30;;;;;;;9.30;4.50;;;16.90;99.90;;;;;;4957017;28;20046;-61
2022/10/04 13:11:19;;;;;;;13.43;4.50;;;16.80;99.90;;;;;;4951209;28;20053;-61
2022/10/04 13:13:50;;;;;;;9.32;4.68;;;16.90;99.90;;;;;;4952080;28;20046;-61
2022/10/04 13:16:43;;;;;;;9.27;4.65;;;16.90;99.90;;;;;;4953330;28;20035;-61
2022/10/04 13:19:21;;;;;;;12.32;4.30;;;16.90;99.90;;;;;;4956921;28;20196;-61
2022/10/04 13:22:24;;;;;;;8.05;4.20;;;17.00;99.90;;;;;;4957260;28;20110;-61
2022/10/04 13:25:12;;;;;;;7.85;4.35;;;17.00;99.90;;;;;;4951288;28;20058;-61
2022/10/04 13:28:04;;;;;;;9.27;3.70;;;17.10;99.90;;;;;;4953352;28;20058;-61
2022/10/04 13:30:49;;;;;;;9.50;3.92;;;17.30;99.90;;;;;;4959944;28;20066;-61
2022/10/04 13:33:15;;;;;;;10.63;4.40;;;17.30;99.90;;;;;;4959483;28;20466;-61
2022/10/04 13:36:05;;;;;;;6.97;3.63;;;17.20;99.90;;;;;;4962227;28;20049;-61
2022/10/04 13:38:56;;;;;;;9.57;3.20;;;17.20;99.90;;;;;;4948298;28;20113;-62
2022/10/04 13:41:33;;;;;;;5.95;2.90;;;17.10;99.90;;;;;;4958771;28;20402;-61
2022/10/04 13:44:40;;;;;;;4.65;2.95;;;17.10;99.90;;;;;;4957711;28;20035;-61
2022/10/04 13:47:27;;;;;;;6.60;3.10;;;17.10;99.90;;;;;;4941738;28;20151;-61
2022/10/04 13:50:11;;;;;;;8.43;3.17;;;17.20;99.90;;;;;;4955552;28;20046;-61
2022/10/04 13:58:40;;;;;;;6.45;3.00;;;17.20;99.90;;;;;;4954661;28;20093;-61
2022/10/04 14:01:42;;;;;;;5.57;2.95;;;17.20;99.90;;;;;;4953102;28;20050;-61
2022/10/04 14:04:11;;;;;;;4.00;2.80;;;17.20;99.90;;;;;;4952790;28;20146;-61
2022/10/04 14:07:07;;;;;;;9.25;3.20;;;17.40;99.90;;;;;;4944858;28;21884;-61